Time;durP1;ratioP1;P1;durP2;ratioP2;P2;SDS_P1;SDS_P2;PMS_P1;PMS_P2;Temp;Humidity;BMP_temperature;BMP_pressure;BME280_temperature;BME280_humidity;BME280_pressure;Samples;Min_cycle;Max_cycle;Signal;HPM_P1;HPM_P2
2022/07/05 00:00:27;;;;;;;9.80;3.90;;;;;21.66;97436.40;;;;110467;1256;41156;-68
2022/07/05 00:03:06;;;;;;;9.90;3.90;;;;;21.60;97432.60;;;;110482;1254;41314;-69
2022/07/05 00:05:37;;;;;;;11.30;3.70;;;;;21.60;97426.00;;;;110696;1253;42549;-67
2022/07/05 00:08:08;;;;;;;8.40;4.00;;;;;21.60;97423.40;;;;110476;1253;41487;-67
2022/07/05 00:10:39;;;;;;;10.00;4.10;;;;;21.50;97426.00;;;;110299;1256;41161;-66
2022/07/05 00:13:09;;;;;;;9.20;4.30;;;;;21.46;97430.60;;;;110685;1253;41395;-68
2022/07/05 00:15:40;;;;;;;11.00;4.50;;;;;21.30;97430.60;;;;110529;1254;42189;-68
2022/07/05 00:18:10;;;;;;;9.20;4.10;;;;;21.24;97431.00;;;;110470;1253;41191;-67
2022/07/05 00:20:42;;;;;;;9.10;4.00;;;;;21.20;97426.60;;;;110499;1254;42088;-67
2022/07/05 00:23:12;;;;;;;;;;;;;21.20;97423.80;;;;110532;1254;41147;-68
2022/07/05 00:25:43;;;;;;;7.90;3.70;;;;;21.20;97429.20;;;;110560;1254;41977;-67
2022/07/05 00:28:15;;;;;;;8.30;3.60;;;;;21.20;97426.80;;;;110546;1253;41151;-67
2022/07/05 00:30:45;;;;;;;8.30;3.80;;;;;21.20;97423.20;;;;110469;1254;41175;-67
2022/07/05 00:33:17;;;;;;;9.40;4.20;;;;;21.20;97421.80;;;;110434;1256;41808;-67
2022/07/05 00:35:47;;;;;;;;;;;;;21.20;97420.80;;;;110449;1254;41776;-67
2022/07/05 00:38:16;;;;;;;7.80;3.40;;;;;21.20;97421.60;;;;110605;1253;42396;-67
2022/07/05 00:40:48;;;;;;;7.50;3.50;;;;;21.20;97422.20;;;;110641;1252;41149;-68
2022/07/05 00:43:19;;;;;;;9.90;3.40;;;;;21.14;97424.20;;;;110555;1254;41389;-68
2022/07/05 00:45:49;;;;;;;8.30;3.50;;;;;21.10;97426.40;;;;110486;1255;41162;-68
2022/07/05 00:48:19;;;;;;;7.80;3.40;;;;;21.10;97425.80;;;;110449;1254;41144;-68
2022/07/05 00:50:51;;;;;;;8.00;3.20;;;;;21.02;97427.40;;;;110483;1253;42081;-69
2022/07/05 00:53:21;;;;;;;8.30;3.60;;;;;21.00;97426.00;;;;110370;1254;42397;-68
2022/07/05 00:55:53;;;;;;;7.20;3.20;;;;;20.90;97423.20;;;;110491;1254;41154;-68
2022/07/05 00:58:22;;;;;;;7.70;3.40;;;;;20.90;97414.00;;;;110330;1255;41160;-68
2022/07/05 01:00:53;;;;;;;9.00;3.60;;;;;20.80;97410.20;;;;110460;1253;42297;-68
2022/07/05 01:03:24;;;;;;;11.90;4.30;;;;;20.76;97402.20;;;;110611;1253;41146;-67
2022/07/05 01:05:55;;;;;;;10.00;4.10;;;;;20.66;97404.60;;;;110594;1253;41333;-68
2022/07/05 01:08:28;;;;;;;9.20;3.90;;;;;20.60;97403.00;;;;110517;1253;41272;-69
2022/07/05 01:10:57;;;;;;;;;;;;;20.60;97403.40;;;;110568;1254;41168;-68
2022/07/05 01:13:28;;;;;;;8.70;3.30;;;;;20.50;97400.60;;;;110502;1254;41255;-67
2022/07/05 01:15:59;;;;;;;11.10;4.00;;;;;20.50;97402.80;;;;110346;1254;41267;-68
2022/07/05 01:18:30;;;;;;;10.20;4.50;;;;;20.50;97409.80;;;;110454;1253;41146;-70
2022/07/05 01:21:00;;;;;;;;;;;;;20.50;97409.20;;;;110504;1253;41153;-66
2022/07/05 01:23:30;;;;;;;8.70;4.50;;;;;20.44;97410.00;;;;110261;1254;41161;-69
2022/07/05 01:26:02;;;;;;;9.30;3.70;;;;;20.40;97408.60;;;;110296;1253;41155;-69
2022/07/05 01:28:31;;;;;;;;;;;;;20.40;97405.20;;;;110619;1251;41938;-68
2022/07/05 01:31:01;;;;;;;7.60;3.30;;;;;20.30;97401.60;;;;110561;1253;41168;-67
2022/07/05 01:33:32;;;;;;;7.40;3.40;;;;;20.30;97406.80;;;;110487;1253;41224;-65
2022/07/05 01:36:02;;;;;;;9.60;3.60;;;;;20.20;97403.80;;;;110439;1253;41595;-67
2022/07/05 01:38:33;;;;;;;9.20;3.40;;;;;20.20;97406.20;;;;110413;1254;41147;-68
2022/07/05 01:41:03;;;;;;;7.30;3.40;;;;;20.18;97410.60;;;;110578;1253;41471;-67
2022/07/05 01:43:35;;;;;;;7.90;3.40;;;;;20.10;97412.40;;;;110390;1254;41150;-68
2022/07/05 01:46:08;;;;;;;8.50;3.70;;;;;20.02;97416.60;;;;110263;1254;41800;-67
2022/07/05 01:48:39;;;;;;;8.30;3.90;;;;;20.00;97412.60;;;;110506;1253;41270;-68
2022/07/05 01:51:26;;;;;;;9.30;4.10;;;;;19.96;97405.60;;;;110385;1254;41222;-67
2022/07/05 01:53:56;;;;;;;11.10;3.90;;;;;19.90;97409.40;;;;110266;1254;41179;-67
2022/07/05 01:56:27;;;;;;;9.30;4.20;;;;;19.80;97407.40;;;;110413;1254;42242;-68
2022/07/05 01:58:57;;;;;;;;;;;;;19.80;97410.40;;;;110401;1254;41161;-67
2022/07/05 02:01:35;;;;;;;7.70;3.40;;;;;19.74;97404.80;;;;110501;1253;41270;-67
2022/07/05 02:04:08;;;;;;;11.00;4.10;;;;;19.70;97407.80;;;;110575;1253;41133;-68
2022/07/05 02:06:39;;;;;;;9.90;4.30;;;;;19.70;97409.40;;;;110646;1253;42212;-68
2022/07/05 02:09:11;;;;;;;11.00;5.10;;;;;19.70;97408.60;;;;110357;1253;41150;-69
2022/07/05 02:11:43;;;;;;;9.40;4.50;;;;;19.70;97413.00;;;;110587;1252;41248;-66
2022/07/05 02:14:13;;;;;;;;;;;;;19.70;97412.80;;;;110498;1254;41192;-67
2022/07/05 02:16:43;;;;;;;9.50;4.30;;;;;19.70;97411.60;;;;110625;1253;41608;-68
2022/07/05 02:19:14;;;;;;;9.50;4.90;;;;;19.70;97412.40;;;;110534;1254;41623;-68
2022/07/05 02:21:44;;;;;;;8.60;4.40;;;;;19.72;97411.80;;;;110367;1253;41876;-68
2022/07/05 02:24:19;;;;;;;11.20;4.80;;;;;19.74;97412.60;;;;110429;1254;41303;-68
2022/07/05 02:26:59;;;;;;;9.80;4.70;;;;;19.80;97417.40;;;;110540;1253;41278;-68
2022/07/05 02:29:30;;;;;;;9.70;4.80;;;;;19.70;97418.20;;;;110474;1253;41618;-67
2022/07/05 02:32:01;;;;;;;8.70;4.10;;;;;19.70;97420.80;;;;110507;1253;42276;-66
2022/07/05 02:34:33;;;;;;;9.00;3.90;;;;;19.70;97425.40;;;;110555;1252;41142;-66
2022/07/05 02:37:04;;;;;;;7.60;3.60;;;;;19.64;97424.00;;;;110515;1253;41282;-67
2022/07/05 02:39:35;;;;;;;12.10;3.60;;;;;19.60;97420.00;;;;110501;1253;41956;-66
2022/07/05 02:42:07;;;;;;;9.00;4.00;;;;;19.60;97419.60;;;;110290;1256;41173;-67
2022/07/05 02:44:38;;;;;;;8.70;3.90;;;;;19.54;97424.00;;;;110431;1253;41581;-66
2022/07/05 02:47:10;;;;;;;10.20;4.30;;;;;19.50;97429.80;;;;110504;1253;41200;-67
2022/07/05 02:49:41;;;;;;;10.90;4.80;;;;;19.50;97429.60;;;;110480;1253;41150;-67
2022/07/05 02:52:11;;;;;;;9.00;4.30;;;;;19.42;97431.00;;;;110545;1253;41199;-67
2022/07/05 02:54:42;;;;;;;8.00;3.90;;;;;19.40;97434.80;;;;110428;1256;42848;-67
2022/07/05 02:57:14;;;;;;;9.20;4.70;;;;;19.40;97439.20;;;;110541;1253;41135;-67
2022/07/05 02:59:45;;;;;;;10.30;4.90;;;;;19.40;97435.60;;;;110444;1254;41249;-68
2022/07/05 03:02:16;;;;;;;9.70;5.00;;;;;19.32;97440.20;;;;110571;1253;41263;-66
2022/07/05 03:04:46;;;;;;;9.20;4.60;;;;;19.30;97438.40;;;;110559;1253;41187;-67
2022/07/05 03:07:17;;;;;;;10.90;5.10;;;;;19.30;97444.20;;;;110411;1253;41938;-67
2022/07/05 03:09:47;;;;;;;10.70;5.00;;;;;19.36;97448.20;;;;110477;1253;41166;-67
2022/07/05 03:12:18;;;;;;;11.20;5.40;;;;;19.40;97449.20;;;;110548;1253;41131;-67
2022/07/05 03:14:49;;;;;;;10.60;5.30;;;;;19.40;97449.80;;;;110368;1253;41402;-67
2022/07/05 03:17:20;;;;;;;9.80;4.70;;;;;19.40;97450.60;;;;110483;1253;41591;-67
2022/07/05 03:19:51;;;;;;;9.20;4.10;;;;;19.40;97450.60;;;;110212;1254;41136;-67
2022/07/05 03:22:22;;;;;;;9.70;4.10;;;;;19.40;97448.00;;;;110329;1254;41732;-68
2022/07/05 03:24:54;;;;;;;8.80;4.30;;;;;19.50;97444.80;;;;110385;1254;41271;-68
2022/07/05 03:27:25;;;;;;;8.40;4.00;;;;;19.50;97442.40;;;;110351;1254;41141;-67
2022/07/05 03:29:57;;;;;;;8.10;3.80;;;;;19.58;97441.20;;;;110408;1256;41420;-67
2022/07/05 03:32:27;;;;;;;9.00;4.30;;;;;19.60;97442.20;;;;110483;1254;41617;-68
2022/07/05 03:34:58;;;;;;;8.40;3.70;;;;;19.68;97443.20;;;;110433;1253;41134;-68
2022/07/05 03:37:29;;;;;;;9.80;4.20;;;;;19.70;97436.20;;;;110461;1254;41210;-67
2022/07/05 03:39:59;;;;;;;9.50;4.70;;;;;19.80;97439.40;;;;110434;1254;41591;-67
2022/07/05 03:42:29;;;;;;;11.40;4.10;;;;;19.88;97433.00;;;;110412;1253;41954;-68
2022/07/05 03:44:59;;;;;;;9.10;3.70;;;;;19.90;97435.40;;;;110300;1256;41206;-67
2022/07/05 03:47:29;;;;;;;26.60;5.60;;;;;20.00;97435.80;;;;110457;1254;41146;-66
2022/07/05 03:49:59;;;;;;;23.70;5.70;;;;;20.00;97431.20;;;;110306;1256;41183;-66
2022/07/05 03:52:30;;;;;;;11.20;5.20;;;;;20.00;97429.20;;;;110325;1254;41623;-67
2022/07/05 03:55:00;;;;;;;11.60;5.00;;;;;20.00;97428.60;;;;110465;1254;41708;-67
2022/07/05 03:57:30;;;;;;;10.30;4.50;;;;;20.02;97436.00;;;;110497;1254;41157;-68
2022/07/05 04:00:00;;;;;;;9.70;4.90;;;;;20.10;97437.40;;;;110360;1256;42040;-67
2022/07/05 04:02:41;;;;;;;;;;;;;20.20;97443.20;;;;110564;1254;41165;-67
2022/07/05 04:05:12;;;;;;;9.40;4.30;;;;;20.20;97440.20;;;;110511;1255;41142;-67
2022/07/05 04:07:53;;;;;;;11.90;5.60;;;;;20.30;97442.40;;;;110558;1253;41211;-67
2022/07/05 04:10:28;;;;;;;11.60;5.00;;;;;20.40;97446.60;;;;110399;1254;41423;-67
2022/07/05 04:12:58;;;;;;;10.00;5.10;;;;;20.50;97449.20;;;;110371;1254;41321;-67
2022/07/05 04:15:28;;;;;;;;;;;;;20.60;97445.20;;;;110466;1253;41166;-67
2022/07/05 04:17:58;;;;;;;9.00;4.60;;;;;20.70;97445.80;;;;110446;1254;41150;-66
2022/07/05 04:20:31;;;;;;;15.10;5.20;;;;;20.80;97444.20;;;;110524;1255;41273;-67
2022/07/05 04:23:02;;;;;;;11.60;5.40;;;;;21.02;97443.20;;;;110460;1254;41381;-67
2022/07/05 04:25:32;;;;;;;11.20;4.90;;;;;21.88;97427.00;;;;110360;1255;42449;-68
2022/07/05 04:28:08;;;;;;;15.80;4.90;;;;;23.20;97423.60;;;;110381;1253;41255;-66
2022/07/05 04:30:38;;;;;;;9.10;4.70;;;;;24.38;97415.60;;;;110365;1256;41782;-67
2022/07/05 04:33:10;;;;;;;10.10;4.60;;;;;25.52;97420.20;;;;110471;1253;41281;-68
2022/07/05 04:35:40;;;;;;;10.10;4.90;;;;;26.48;97419.00;;;;110376;1254;41280;-68
2022/07/05 04:38:10;;;;;;;9.40;4.60;;;;;27.30;97414.40;;;;110420;1253;42547;-68
2022/07/05 04:40:42;;;;;;;9.10;4.40;;;;;28.02;97413.00;;;;110458;1256;42335;-68
2022/07/05 04:43:12;;;;;;;8.90;4.00;;;;;28.74;97411.60;;;;110534;1253;42101;-67
2022/07/05 04:45:43;;;;;;;10.10;4.30;;;;;29.50;97417.20;;;;110374;1254;42229;-67
2022/07/05 04:48:13;;;;;;;10.20;5.10;;;;;30.10;97415.60;;;;110394;1254;41900;-69
2022/07/05 04:50:42;;;;;;;12.20;5.10;;;;;30.40;97414.40;;;;110444;1254;41223;-68
2022/07/05 04:53:12;;;;;;;13.50;5.00;;;;;30.50;97412.00;;;;110442;1256;41191;-68
2022/07/05 04:55:42;;;;;;;10.90;5.10;;;;;30.52;97410.20;;;;110417;1255;41141;-67
2022/07/05 04:58:11;;;;;;;10.90;5.00;;;;;30.82;97414.20;;;;110294;1254;41160;-68
2022/07/05 05:00:41;;;;;;;16.30;5.80;;;;;31.10;97413.20;;;;110334;1254;41376;-68
2022/07/05 05:03:11;;;;;;;10.90;5.50;;;;;31.36;97414.40;;;;110415;1254;41281;-68
2022/07/05 05:05:40;;;;;;;15.90;4.80;;;;;31.70;97415.60;;;;110573;1254;41809;-70
2022/07/05 05:08:09;;;;;;;11.00;5.10;;;;;31.90;97416.60;;;;110592;1253;41189;-70
2022/07/05 05:10:39;;;;;;;8.80;4.30;;;;;32.10;97415.60;;;;110631;1254;41171;-70
2022/07/05 05:13:09;;;;;;;12.40;5.10;;;;;32.60;97413.40;;;;110624;1254;41667;-71
2022/07/05 05:15:38;;;;;;;9.30;4.70;;;;;33.00;97416.40;;;;110609;1253;42139;-70
2022/07/05 05:18:07;;;;;;;9.60;4.30;;;;;33.40;97407.40;;;;110623;1254;41146;-70
2022/07/05 05:20:36;;;;;;;8.50;3.80;;;;;33.46;97421.60;;;;110455;1256;41282;-69
2022/07/05 05:23:08;;;;;;;11.50;4.90;;;;;32.96;97422.20;;;;110506;1252;41508;-69
2022/07/05 05:25:38;;;;;;;14.20;5.10;;;;;32.40;97430.20;;;;110511;1254;41674;-67
2022/07/05 05:28:08;;;;;;;11.80;4.00;;;;;31.92;97432.00;;;;110501;1253;42289;-67
2022/07/05 05:30:37;;;;;;;10.00;4.00;;;;;31.62;97431.60;;;;110519;1253;41630;-67
2022/07/05 05:33:06;;;;;;;8.10;3.60;;;;;31.22;97441.60;;;;110442;1253;41145;-68
2022/07/05 05:35:36;;;;;;;7.80;3.60;;;;;30.70;97445.40;;;;110418;1254;41901;-69
2022/07/05 05:38:05;;;;;;;8.90;3.80;;;;;30.18;97444.40;;;;110334;1256;41385;-67
2022/07/05 05:40:37;;;;;;;9.40;3.90;;;;;29.76;97445.20;;;;110533;1254;41661;-66
2022/07/05 05:43:06;;;;;;;9.90;3.80;;;;;29.50;97446.40;;;;110507;1254;41156;-69
2022/07/05 05:45:36;;;;;;;8.30;3.90;;;;;29.50;97446.60;;;;110635;1253;41253;-68
2022/07/05 05:48:05;;;;;;;9.00;4.20;;;;;29.40;97449.00;;;;110675;1255;41614;-68
2022/07/05 05:50:38;;;;;;;8.80;4.00;;;;;29.30;97447.40;;;;110530;1252;41150;-68
2022/07/05 05:53:08;;;;;;;9.00;3.80;;;;;29.14;97444.60;;;;110553;1251;41265;-69
2022/07/05 05:55:38;;;;;;;11.00;4.60;;;;;29.06;97442.20;;;;110505;1253;41655;-69
2022/07/05 05:58:14;;;;;;;10.40;3.70;;;;;28.90;97445.60;;;;110709;1252;41139;-70
2022/07/05 06:00:48;;;;;;;9.10;4.80;;;;;28.92;97442.00;;;;110722;1252;41539;-70
2022/07/05 06:03:19;;;;;;;11.00;4.90;;;;;29.54;97440.40;;;;110724;1253;41156;-70
2022/07/05 06:05:48;;;;;;;8.90;4.20;;;;;29.96;97435.60;;;;110715;1253;41478;-69
2022/07/05 06:08:18;;;;;;;10.30;4.10;;;;;30.62;97435.20;;;;110565;1254;41159;-68
2022/07/05 06:10:48;;;;;;;9.60;4.50;;;;;30.82;97432.60;;;;110767;1253;41622;-69
2022/07/05 06:13:23;;;;;;;10.60;4.10;;;;;31.56;97428.40;;;;110718;1251;41377;-68
2022/07/05 06:15:52;;;;;;;12.10;3.70;;;;;32.06;97428.40;;;;110704;1251;41145;-69
2022/07/05 06:18:22;;;;;;;8.10;3.50;;;;;32.94;97423.60;;;;110717;1253;41391;-69
2022/07/05 06:20:51;;;;;;;7.70;3.40;;;;;33.82;97419.00;;;;110695;1253;41156;-69
2022/07/05 06:23:20;;;;;;;8.80;4.00;;;;;34.60;97414.20;;;;110619;1253;41185;-69
2022/07/05 06:25:49;;;;;;;11.00;4.80;;;;;35.04;97410.80;;;;110606;1254;41613;-68
2022/07/05 06:28:18;;;;;;;9.50;4.00;;;;;35.18;97408.40;;;;110620;1253;41258;-68
2022/07/05 06:30:47;;;;;;;11.10;3.70;;;;;35.00;97413.80;;;;110656;1254;41635;-69
2022/07/05 06:33:16;;;;;;;10.20;3.90;;;;;35.22;97413.00;;;;110637;1254;42431;-68
2022/07/05 06:35:45;;;;;;;8.70;3.30;;;;;35.58;97416.00;;;;110452;1253;41316;-68
2022/07/05 06:38:15;;;;;;;12.10;4.60;;;;;36.22;97412.80;;;;110596;1253;41207;-69
2022/07/05 06:40:45;;;;;;;9.10;3.70;;;;;36.40;97413.40;;;;110558;1253;41142;-67
2022/07/05 06:43:14;;;;;;;9.60;3.30;;;;;36.60;97412.80;;;;110549;1253;41142;-68
2022/07/05 06:46:05;;;;;;;10.10;3.80;;;;;37.28;97410.80;;;;110534;1253;41235;-67
2022/07/05 06:48:35;;;;;;;8.60;3.60;;;;;37.86;97405.60;;;;110581;1253;41595;-68
2022/07/05 06:51:04;;;;;;;8.80;3.80;;;;;38.42;97406.40;;;;110536;1253;41445;-68
2022/07/05 06:53:33;;;;;;;10.00;3.70;;;;;38.44;97402.60;;;;110665;1251;41381;-69
2022/07/05 06:56:02;;;;;;;8.30;3.50;;;;;38.78;97400.40;;;;110485;1256;41618;-68
2022/07/05 06:58:31;;;;;;;11.10;4.50;;;;;38.36;97400.60;;;;110491;1253;41276;-68
2022/07/05 07:01:01;;;;;;;8.40;3.50;;;;;38.02;97399.20;;;;110492;1254;41162;-69
2022/07/05 07:03:46;;;;;;;10.30;3.20;;;;;37.90;97400.00;;;;110504;1253;41647;-69
2022/07/05 07:06:36;;;;;;;9.00;3.40;;;;;38.40;97398.60;;;;110485;1253;42070;-68
2022/07/05 07:09:23;;;;;;;11.50;4.60;;;;;38.70;97392.60;;;;110430;1254;41182;-68
2022/07/05 07:11:53;;;;;;;10.00;3.90;;;;;38.22;97385.60;;;;110555;1253;41182;-69
2022/07/05 07:14:22;;;;;;;7.20;3.20;;;;;37.10;97388.00;;;;110534;1252;41740;-69
2022/07/05 07:16:51;;;;;;;8.60;3.70;;;;;36.28;97392.40;;;;110522;1252;41147;-68
2022/07/05 07:19:21;;;;;;;8.00;3.50;;;;;35.50;97403.60;;;;110526;1253;41652;-69
2022/07/05 07:21:50;;;;;;;10.00;3.70;;;;;34.86;97406.40;;;;110646;1253;41912;-69
2022/07/05 07:24:19;;;;;;;8.60;4.00;;;;;34.30;97400.20;;;;110552;1253;41492;-68
2022/07/05 07:27:04;;;;;;;9.10;4.10;;;;;33.82;97405.40;;;;110637;1253;41148;-70
2022/07/05 07:29:35;;;;;;;9.70;3.30;;;;;33.06;97412.60;;;;110347;1253;405410;-69
2022/07/05 07:32:05;;;;;;;10.20;4.00;;;;;32.82;97413.00;;;;110681;1254;41149;-70
2022/07/05 07:34:34;;;;;;;13.40;4.50;;;;;32.50;97413.60;;;;110550;1255;41981;-70
2022/07/05 07:37:04;;;;;;;9.00;4.30;;;;;32.08;97414.20;;;;110543;1254;41129;-70
2022/07/05 07:39:33;;;;;;;8.10;3.70;;;;;32.00;97412.40;;;;110640;1254;41187;-70
2022/07/05 07:42:02;;;;;;;11.10;4.00;;;;;31.98;97410.40;;;;110647;1253;41155;-70
2022/07/05 07:44:30;;;;;;;10.50;4.30;;;;;32.00;97412.40;;;;110515;1253;41268;-70
2022/07/05 07:46:59;;;;;;;10.40;4.00;;;;;32.00;97414.00;;;;110649;1254;40744;-70
2022/07/05 07:49:28;;;;;;;10.60;3.80;;;;;32.00;97411.40;;;;110575;1253;41268;-71
2022/07/05 07:51:57;;;;;;;9.20;4.10;;;;;32.10;97413.20;;;;110747;1253;41270;-71
2022/07/05 07:54:26;;;;;;;11.50;4.00;;;;;32.10;97413.00;;;;110629;1255;41726;-72
2022/07/05 07:56:55;;;;;;;10.60;3.90;;;;;32.20;97415.20;;;;110637;1253;41159;-70
2022/07/05 07:59:23;;;;;;;9.30;3.80;;;;;32.04;97415.60;;;;110757;1252;41597;-70
2022/07/05 08:01:52;;;;;;;8.30;3.80;;;;;32.22;97415.00;;;;110650;1254;41484;-70
2022/07/05 08:04:21;;;;;;;9.10;3.60;;;;;32.40;97405.60;;;;110667;1251;42412;-70
2022/07/05 08:06:50;;;;;;;9.20;3.50;;;;;32.60;97403.00;;;;110699;1253;41418;-70
2022/07/05 08:09:19;;;;;;;8.70;3.70;;;;;32.80;97405.20;;;;110738;1253;41153;-70
2022/07/05 08:11:48;;;;;;;9.90;4.60;;;;;33.00;97402.60;;;;110698;1253;41127;-72
2022/07/05 08:14:21;;;;;;;11.60;4.90;;;;;32.70;97407.00;;;;110588;1254;41946;-71
2022/07/05 08:16:50;;;;;;;9.30;4.10;;;;;32.46;97400.00;;;;110643;1251;41140;-70
2022/07/05 08:22:08;;;;;;;12.60;3.80;;;;;32.40;97397.40;;;;110664;1253;41723;-69
2022/07/05 08:24:41;;;;;;;11.40;4.30;;;;;32.50;97393.40;;;;110541;1253;41394;-72
2022/07/05 08:27:11;;;;;;;10.60;3.50;;;;;32.70;97394.60;;;;110706;1253;41271;-70
2022/07/05 08:29:41;;;;;;;9.00;3.70;;;;;32.70;97389.00;;;;110603;1254;41631;-70
2022/07/05 08:32:10;;;;;;;;;;;;;32.90;97383.40;;;;110658;1254;41433;-69
2022/07/05 08:34:39;;;;;;;10.60;4.10;;;;;32.70;97380.20;;;;110607;1253;41142;-70
2022/07/05 08:37:08;;;;;;;8.60;3.40;;;;;32.70;97374.40;;;;110684;1253;42500;-69
2022/07/05 08:39:47;;;;;;;9.30;3.50;;;;;32.80;97372.00;;;;110554;1253;41159;-69
2022/07/05 08:42:26;;;;;;;9.90;4.30;;;;;33.00;97376.40;;;;110644;1251;41277;-69
2022/07/05 08:44:58;;;;;;;9.10;4.20;;;;;33.12;97372.00;;;;110739;1254;42531;-70
2022/07/05 08:47:28;;;;;;;9.40;3.80;;;;;33.10;97366.00;;;;110526;1253;42464;-70
2022/07/05 08:49:58;;;;;;;7.30;3.20;;;;;33.04;97365.40;;;;110768;1253;41291;-69
2022/07/05 08:52:29;;;;;;;7.40;3.30;;;;;33.20;97357.20;;;;110688;1253;42100;-69
2022/07/05 08:54:58;;;;;;;9.50;3.80;;;;;33.44;97359.20;;;;110694;1253;41152;-69
2022/07/05 08:57:27;;;;;;;8.70;3.30;;;;;33.70;97356.20;;;;110694;1252;41727;-70
2022/07/05 08:59:56;;;;;;;9.10;3.20;;;;;33.70;97350.80;;;;110716;1251;41156;-69
2022/07/05 09:02:24;;;;;;;9.00;3.40;;;;;33.86;97353.00;;;;110648;1253;41343;-70
2022/07/05 09:04:55;;;;;;;10.80;3.20;;;;;34.14;97352.80;;;;110683;1253;41624;-81
2022/07/05 09:07:26;;;;;;;10.30;3.90;;;;;34.44;97351.40;;;;110722;1253;41611;-86
2022/07/05 09:09:56;;;;;;;9.00;3.70;;;;;34.88;97347.20;;;;110614;1251;42192;-83
2022/07/05 09:12:25;;;;;;;8.00;3.20;;;;;34.82;97345.00;;;;110741;1253;41213;-86
2022/07/05 09:14:55;;;;;;;7.60;2.80;;;;;35.10;97342.00;;;;110668;1254;41215;-81
2022/07/05 09:17:26;;;;;;;8.50;3.70;;;;;35.24;97338.20;;;;110657;1254;41952;-83
2022/07/05 09:20:07;;;;;;;8.00;3.30;;;;;35.30;97337.20;;;;110719;1253;41193;-82
2022/07/05 09:22:47;;;;;;;10.60;3.80;;;;;35.34;97328.80;;;;110773;1252;42405;-83
2022/07/05 09:25:30;;;;;;;7.50;2.50;;;;;35.76;97326.80;;;;110745;1253;41146;-77
2022/07/05 09:28:05;;;;;;;8.20;2.90;;;;;35.54;97319.00;;;;110754;1252;41817;-84
2022/07/05 09:30:41;;;;;;;8.90;2.70;;;;;36.42;97315.60;;;;110776;1253;42474;-84
2022/07/05 09:33:15;;;;;;;7.70;2.70;;;;;37.00;97317.80;;;;110724;1253;41723;-83
2022/07/05 09:35:58;;;;;;;9.40;3.40;;;;;38.08;97312.80;;;;110690;1253;41165;-80
2022/07/05 09:38:29;;;;;;;7.50;2.90;;;;;38.36;97310.20;;;;110473;1255;41166;-82
2022/07/05 09:41:01;;;;;;;8.80;3.10;;;;;38.34;97302.20;;;;110585;1254;42754;-85
2022/07/05 09:43:30;;;;;;;9.00;3.40;;;;;38.88;97299.00;;;;110531;1254;41186;-81
2022/07/05 09:46:01;;;;;;;9.00;3.60;;;;;38.48;97300.60;;;;110785;1253;42361;-80
2022/07/05 09:48:32;;;;;;;6.40;2.30;;;;;38.40;97297.60;;;;110800;1253;41160;-84
2022/07/05 09:51:11;;;;;;;7.30;2.60;;;;;38.62;97297.00;;;;110816;1253;41155;-85
2022/07/05 09:54:01;;;;;;;8.60;3.20;;;;;39.64;97291.60;;;;110798;1251;41165;-84
2022/07/05 09:56:44;;;;;;;6.50;2.50;;;;;40.36;97286.40;;;;110805;1253;41824;-79
2022/07/05 09:59:15;;;;;;;6.00;2.60;;;;;40.30;97285.20;;;;110837;1253;42852;-72
2022/07/05 10:01:44;;;;;;;7.80;2.40;;;;;40.70;97282.40;;;;110757;1253;41165;-72
2022/07/05 10:04:14;;;;;;;7.70;2.70;;;;;41.10;97279.60;;;;110784;1253;42365;-81
2022/07/05 10:06:43;;;;;;;7.30;2.60;;;;;40.60;97285.80;;;;110735;1252;41266;-80
2022/07/05 10:09:14;;;;;;;7.40;3.20;;;;;40.90;97285.60;;;;110732;1253;41169;-83
2022/07/05 10:11:44;;;;;;;7.20;2.70;;;;;40.44;97281.60;;;;110745;1250;41134;-75
2022/07/05 10:14:17;;;;;;;7.00;2.90;;;;;40.28;97278.80;;;;110695;1254;41168;-82
2022/07/05 10:17:09;;;;;;;7.90;3.10;;;;;39.48;97275.20;;;;110815;1253;41147;-85
2022/07/05 10:19:41;;;;;;;9.40;3.10;;;;;38.30;97271.60;;;;110707;1253;41156;-83
2022/07/05 10:22:11;;;;;;;6.60;2.60;;;;;38.04;97274.00;;;;110518;1256;41385;-83
2022/07/05 10:24:48;;;;;;;7.90;3.20;;;;;37.92;97275.20;;;;110554;1255;42913;-83
2022/07/05 10:27:19;;;;;;;8.40;2.60;;;;;38.08;97273.40;;;;110679;1254;41200;-81
2022/07/05 10:29:50;;;;;;;10.80;3.50;;;;;37.90;97268.00;;;;110819;1253;42416;-77
2022/07/05 10:32:19;;;;;;;8.20;3.20;;;;;38.30;97271.60;;;;110787;1253;41149;-75
2022/07/05 10:34:51;;;;;;;8.80;3.20;;;;;38.30;97270.20;;;;110646;1254;41715;-69
2022/07/05 10:37:33;;;;;;;7.40;2.80;;;;;38.00;97266.00;;;;110647;1255;41508;-74
2022/07/05 10:40:05;;;;;;;7.60;3.10;;;;;38.32;97266.60;;;;110479;1254;41811;-68
2022/07/05 10:42:48;;;;;;;7.30;2.50;;;;;38.40;97264.40;;;;110748;1254;41156;-73
2022/07/05 10:45:33;;;;;;;7.00;2.30;;;;;38.30;97261.40;;;;110763;1251;41626;-79
2022/07/05 10:48:24;;;;;;;8.80;2.70;;;;;38.60;97258.00;;;;110760;1252;41304;-81
2022/07/05 10:51:03;;;;;;;7.40;3.00;;;;;39.74;97252.20;;;;110792;1253;42182;-78
2022/07/05 10:53:35;;;;;;;8.20;3.60;;;;;39.36;97247.40;;;;110650;1254;41160;-82
2022/07/05 10:56:05;;;;;;;7.70;2.50;;;;;39.42;97255.80;;;;110657;1253;41184;-82
2022/07/05 10:58:41;;;;;;;8.30;3.00;;;;;39.18;97249.40;;;;110752;1253;42493;-73
2022/07/05 11:01:15;;;;;;;5.10;2.30;;;;;39.70;97249.60;;;;110618;1254;41168;-81
2022/07/05 11:04:02;;;;;;;6.30;2.40;;;;;40.30;97240.80;;;;110707;1253;42010;-77
2022/07/05 11:06:38;;;;;;;5.90;2.10;;;;;41.46;97229.20;;;;110758;1252;41181;-83
2022/07/05 11:09:10;;;;;;;7.60;2.90;;;;;42.60;97229.00;;;;110686;1253;40921;-78
2022/07/05 11:11:41;;;;;;;10.60;2.90;;;;;43.74;97220.40;;;;110509;1255;41389;-83
2022/07/05 11:14:21;;;;;;;;;;;;;43.92;97217.40;;;;110729;1254;41202;-83
2022/07/05 11:17:12;;;;;;;7.10;2.60;;;;;43.70;97213.60;;;;110678;1253;41151;-82
2022/07/05 11:20:08;;;;;;;5.70;2.20;;;;;43.10;97206.40;;;;110631;1253;41618;-84
2022/07/05 11:23:04;;;;;;;6.90;2.30;;;;;43.30;97208.20;;;;110456;1255;41798;-84
2022/07/05 11:25:44;;;;;;;7.70;2.40;;;;;44.28;97198.00;;;;110738;1253;41264;-81
2022/07/05 11:28:17;;;;;;;7.80;2.50;;;;;44.66;97195.60;;;;110632;1252;41985;-79
2022/07/05 11:30:49;;;;;;;9.40;2.60;;;;;45.20;97195.40;;;;110621;1254;41133;-84
2022/07/05 11:33:34;;;;;;;4.50;2.20;;;;;45.18;97197.00;;;;110669;1254;41157;-83
2022/07/05 11:36:13;;;;;;;6.60;2.40;;;;;45.40;97193.20;;;;110674;1253;42517;-81
2022/07/05 11:39:20;;;;;;;9.50;2.70;;;;;46.34;97189.40;;;;110670;1254;41623;-85
2022/07/05 11:41:49;;;;;;;7.80;2.80;;;;;44.60;97190.20;;;;110275;1259;40940;-85
2022/07/05 11:44:18;;;;;;;7.00;2.80;;;;;44.58;97189.80;;;;110171;1259;41163;-81
2022/07/05 11:46:47;;;;;;;;;;;;;44.80;97189.00;;;;110262;1259;41219;-86
2022/07/05 11:49:23;;;;;;;7.80;2.60;;;;;42.14;97191.60;;;;110115;1259;41268;-82
2022/07/05 11:51:59;;;;;;;6.00;2.20;;;;;42.86;97188.80;;;;110151;1259;41274;-80
2022/07/05 11:54:32;;;;;;;5.60;2.30;;;;;43.20;97185.60;;;;110248;1259;41273;-86
2022/07/05 11:57:02;;;;;;;7.70;2.60;;;;;43.56;97184.40;;;;110203;1259;41263;-88
2022/07/05 11:59:31;;;;;;;6.40;2.70;;;;;43.40;97180.20;;;;110272;1259;41197;-87
2022/07/05 12:02:01;;;;;;;6.60;2.30;;;;;41.58;97181.80;;;;110209;1258;41159;-86
2022/07/05 12:04:30;;;;;;;6.70;2.50;;;;;42.32;97174.60;;;;110195;1259;41179;-78
2022/07/05 12:07:00;;;;;;;6.20;2.40;;;;;41.26;97178.40;;;;110216;1259;41288;-79
2022/07/05 12:15:17;;;;;;;6.90;2.60;;;;;40.20;97180.40;;;;110210;1256;41620;-78
2022/07/05 12:17:48;;;;;;;5.70;2.50;;;;;39.44;97186.20;;;;110584;1254;41610;-78
2022/07/05 12:20:24;;;;;;;8.50;3.00;;;;;38.88;97181.00;;;;110735;1252;40792;-84
2022/07/05 12:22:54;;;;;;;7.20;2.70;;;;;38.52;97180.60;;;;110840;1251;42424;-74
2022/07/05 12:25:24;;;;;;;7.10;2.90;;;;;38.44;97171.60;;;;110500;1254;41265;-83
2022/07/05 12:27:55;;;;;;;11.00;3.40;;;;;37.96;97174.00;;;;110514;1254;41647;-78
2022/07/05 12:30:24;;;;;;;6.50;2.80;;;;;37.68;97174.00;;;;110822;1253;41503;-82
2022/07/05 12:33:05;;;;;;;7.50;3.00;;;;;37.10;97169.20;;;;110741;1252;41256;-84
2022/07/05 12:35:47;;;;;;;8.40;2.70;;;;;36.90;97166.40;;;;110834;1252;41178;-80
2022/07/05 12:38:19;;;;;;;8.50;3.20;;;;;36.82;97164.20;;;;110741;1253;41728;-83
2022/07/05 12:40:57;;;;;;;7.60;3.00;;;;;37.00;97157.00;;;;110787;1253;41154;-81